Barstow, Texas
Current Conditions -  °F | °C
As of 11:15 AM on Friday 19 Dec 2014 (Local Time) from KPEQ Reporting Station
Clear Clear  
Wind Chill: 52°   Ceiling: Unl
Heat Index: 52°   Visibility: 10mi
Dew Point: 38°   Wind: 6mph
Humidity: 60%   Direction: 250°WSW
Pressure: 30.2"   Gusts: NA
Location:  31.46°N, 103.39°W
Report Text: KPEQ 191715Z AUTO 25005KT 10SM CLR 11/04 A3020 RMK AO2 T01100035
Loading
Personal Weather Stations






























Interactive Weather Map New forecast layout! Learn more

10-Day Weather Forecast

Advertisements
Track Severe Weather on mobile